Terminal Aerodrome Forecast
Issued by NWS Albany, NY

Home | Current Version | Previous Version | Text Only | Print | Product List | Glossary On
Versions: 1 2 3 4 5 6 7 8 9 10 11 12 13 14 15 16 17
000
FTUS41 KALY 291721
TAFGFL
TAF
KGFL 291721Z 2918/3018 16008KT P6SM FEW060 SCT250
     FM300100 VRB03KT P6SM FEW250
     FM300800 VRB02KT 4SM BR SCT005 BKN040
     FM301200 19005KT P6SM BKN050
     FM301500 20008KT P6SM VCSH BKN050 OVC080=

USA.gov is the U.S. government's official web portal to all federal, state and local government web resources and services.